createdAt,value
2019-03-05T00:02:13.043Z,1.03
2019-03-05T00:07:19.138Z,0.98
2019-03-05T00:12:25.129Z,0.89
2019-03-05T00:17:31.946Z,1.03
2019-03-05T00:22:38.289Z,1.11
2019-03-05T00:27:44.395Z,0.98
2019-03-05T00:32:50.382Z,0.95
2019-03-05T00:37:56.980Z,1.18
2019-03-05T00:43:02.989Z,1.35
2019-03-05T00:48:11.316Z,1.17
2019-03-05T00:53:14.874Z,1.10
2019-03-05T00:58:21.055Z,0.83
2019-03-05T01:03:27.195Z,0.57
2019-03-05T01:08:33.501Z,0.41
2019-03-05T01:13:39.595Z,0.27
2019-03-05T01:18:45.821Z,0.44
2019-03-05T01:23:52.024Z,0.29
2019-03-05T01:28:58.377Z,0.25
2019-03-05T01:34:04.455Z,0.13
2019-03-05T01:39:10.678Z,0.20
2019-03-05T01:44:17.019Z,0.29
2019-03-05T01:49:23.167Z,0.14
2019-03-05T01:54:29.187Z,0.28
2019-03-05T01:59:35.200Z,0.20
2019-03-05T02:04:41.311Z,0.40
2019-03-05T02:09:47.668Z,0.20
2019-03-05T02:14:53.710Z,0.23
2019-03-05T02:19:59.709Z,0.32
2019-03-05T02:25:05.745Z,0.38
2019-03-05T02:30:11.886Z,0.30
2019-03-05T02:35:17.903Z,0.31
2019-03-05T02:40:23.887Z,0.27
2019-03-05T02:45:31.522Z,0.47
2019-03-05T02:50:35.407Z,0.21
2019-03-05T02:55:41.407Z,0.24
2019-03-05T03:00:47.393Z,0.55
2019-03-05T03:05:53.401Z,0.21
2019-03-05T03:10:59.389Z,0.31
2019-03-05T03:16:05.376Z,0.30
2019-03-05T03:21:11.394Z,0.28
2019-03-05T03:26:17.504Z,0.38
2019-03-05T03:31:23.530Z,0.52
2019-03-05T03:36:29.518Z,0.47
2019-03-05T03:41:35.496Z,0.40
2019-03-05T03:46:41.510Z,0.58
2019-03-05T03:51:51.150Z,0.60
2019-03-05T03:56:53.053Z,0.67
2019-03-05T04:01:59.067Z,0.95
2019-03-05T04:07:05.072Z,0.70
2019-03-05T04:12:11.050Z,0.61
2019-03-05T04:17:17.043Z,1.01
2019-03-05T04:22:23.048Z,1.25
2019-03-05T04:27:29.100Z,1.34
2019-03-05T04:32:35.195Z,0.93
2019-03-05T04:37:41.187Z,1.50
2019-03-05T04:42:47.181Z,1.15
2019-03-05T04:47:53.214Z,1.30
2019-03-05T04:52:59.203Z,1.05
2019-03-05T04:58:05.208Z,0.96
2019-03-05T05:03:11.446Z,0.76
2019-03-05T05:08:17.466Z,0.94
2019-03-05T05:13:23.494Z,1.14
2019-03-05T05:18:29.484Z,0.80
2019-03-05T05:23:35.550Z,1.09
2019-03-05T05:28:41.542Z,1.17
2019-03-05T05:33:47.971Z,1.20
2019-03-05T05:38:53.964Z,1.94
2019-03-05T05:43:59.961Z,1.47
2019-03-05T05:49:06.074Z,1.32
2019-03-05T05:54:12.071Z,2.65
2019-03-05T05:59:18.182Z,1.30
2019-03-05T06:04:24.244Z,1.35
2019-03-05T06:09:30.434Z,2.23
2019-03-05T06:14:36.413Z,1.31
2019-03-05T06:19:42.540Z,1.38
2019-03-05T06:24:48.559Z,1.41
2019-03-05T06:29:54.637Z,1.22
2019-03-05T06:35:00.675Z,1.43
2019-03-05T06:40:06.689Z,1.17
2019-03-05T06:45:12.722Z,1.26
2019-03-05T06:50:18.798Z,1.14
2019-03-05T06:55:24.850Z,1.53
2019-03-05T07:00:30.852Z,1.26
2019-03-05T07:05:36.839Z,1.02
2019-03-05T07:10:42.897Z,0.92
2019-03-05T07:15:48.952Z,1.13
2019-03-05T07:20:54.966Z,1.18
2019-03-05T07:26:01.018Z,1.04
2019-03-05T07:31:07.118Z,0.90
2019-03-05T07:36:13.285Z,1.16
2019-03-05T07:41:19.492Z,1.11
2019-03-05T07:46:25.489Z,1.96
2019-03-05T07:51:31.489Z,1.20
2019-03-05T07:56:37.791Z,0.93
2019-03-05T08:01:43.927Z,0.59
2019-03-05T08:06:49.989Z,0.63
2019-03-05T08:11:55.984Z,0.55
2019-03-05T08:17:02.108Z,0.67
2019-03-05T08:22:08.913Z,0.49
2019-03-05T08:27:13.678Z,0.54
2019-03-05T08:32:19.696Z,0.60
2019-03-05T08:37:25.701Z,0.30
2019-03-05T08:42:31.734Z,0.42
2019-03-05T08:47:37.874Z,0.29
2019-03-05T08:52:43.939Z,0.58
2019-03-05T08:57:49.975Z,0.32
2019-03-05T09:02:55.959Z,0.29
2019-03-05T09:08:01.941Z,0.78
2019-03-05T09:13:08.152Z,0.29
2019-03-05T09:18:14.204Z,0.25
2019-03-05T09:23:20.244Z,0.23
2019-03-05T09:28:26.317Z,0.24
2019-03-05T09:33:32.342Z,0.62
2019-03-05T09:38:38.331Z,1.26
2019-03-05T09:43:44.333Z,0.36
2019-03-05T09:48:50.358Z,1.61
2019-03-05T09:53:56.571Z,0.92
2019-03-05T09:59:02.665Z,2.51
2019-03-05T10:04:08.907Z,2.86
2019-03-05T10:09:14.964Z,3.16
2019-03-05T10:14:20.999Z,2.50
2019-03-05T10:19:27.018Z,1.41
2019-03-05T10:24:33.052Z,1.40
2019-03-05T10:29:39.120Z,0.79
2019-03-05T10:34:45.089Z,0.95
2019-03-05T10:39:51.116Z,1.22
2019-03-05T10:44:57.150Z,0.46
2019-03-05T10:50:03.261Z,0.34
2019-03-05T10:55:09.504Z,0.50
2019-03-05T11:00:15.620Z,0.35
2019-03-05T11:05:21.658Z,0.26
2019-03-05T11:10:27.785Z,0.56
2019-03-05T11:15:33.877Z,1.06
2019-03-05T11:20:39.973Z,1.01
2019-03-05T11:25:46.036Z,0.65
2019-03-05T11:30:52.062Z,0.68
2019-03-05T11:35:58.075Z,0.27
2019-03-05T11:41:04.071Z,0.33
2019-03-05T11:46:10.106Z,0.45
2019-03-05T11:51:16.313Z,0.43
2019-03-05T11:56:22.564Z,0.66
2019-03-05T12:01:29.009Z,0.53
2019-03-05T12:06:35.041Z,0.26
2019-03-05T12:11:41.124Z,0.54
2019-03-05T12:16:47.314Z,0.89
2019-03-05T12:21:54.332Z,0.57
2019-03-05T12:27:00.336Z,0.45
2019-03-05T12:32:06.364Z,0.65
2019-03-05T12:37:12.776Z,0.61
2019-03-05T12:42:18.893Z,0.60
2019-03-05T12:47:24.931Z,1.27
2019-03-05T12:52:30.930Z,0.97
2019-03-05T12:57:37.444Z,0.70
2019-03-05T13:02:43.502Z,0.79
2019-03-05T13:07:52.511Z,0.61
2019-03-05T13:12:55.591Z,1.25
2019-03-05T13:18:01.664Z,0.28
2019-03-05T13:23:09.497Z,0.49
2019-03-05T13:28:13.601Z,0.40
2019-03-05T13:33:19.837Z,0.47
2019-03-05T13:38:25.936Z,0.51
2019-03-05T13:43:32.212Z,0.67
2019-03-05T13:48:38.239Z,0.57
2019-03-05T13:53:44.641Z,0.37
2019-03-05T13:58:52.194Z,0.42
2019-03-05T14:03:58.231Z,0.67
2019-03-05T14:09:04.440Z,0.83
2019-03-05T14:14:10.487Z,0.48
2019-03-05T14:19:16.486Z,0.67
2019-03-05T14:24:22.484Z,0.80
2019-03-05T14:29:29.438Z,0.78
2019-03-05T14:34:34.244Z,1.08
2019-03-05T14:39:43.451Z,0.92
2019-03-05T14:44:49.424Z,1.04
2019-03-05T14:49:55.456Z,1.18
2019-03-05T14:55:01.464Z,1.28
2019-03-05T15:00:07.478Z,1.19
2019-03-05T15:05:13.498Z,0.88
2019-03-05T15:10:19.509Z,1.06
2019-03-05T15:15:25.539Z,1.35
2019-03-05T15:20:31.697Z,1.28
2019-03-05T15:25:39.154Z,0.87
2019-03-05T15:30:45.244Z,0.80
2019-03-05T15:35:51.242Z,1.15
2019-03-05T15:40:57.303Z,0.85
2019-03-05T15:46:03.358Z,0.84
2019-03-05T15:51:09.363Z,0.85
2019-03-05T15:56:15.386Z,1.00
2019-03-05T16:01:22.604Z,1.30
2019-03-05T16:06:30.101Z,0.67
2019-03-05T16:11:34.184Z,1.02
2019-03-05T16:16:38.107Z,0.91
2019-03-05T16:21:44.205Z,1.29
2019-03-05T16:26:51.219Z,1.12
2019-03-05T16:31:56.116Z,1.50
2019-03-05T16:37:05.624Z,1.07
2019-03-05T16:42:07.718Z,0.95
2019-03-05T16:47:13.799Z,1.15
2019-03-05T16:52:19.863Z,1.08
2019-03-05T16:57:25.897Z,1.17
2019-03-05T17:02:32.050Z,1.45
2019-03-05T17:07:38.164Z,0.75
2019-03-05T17:12:44.235Z,0.91
2019-03-05T17:17:50.593Z,1.03
2019-03-05T17:22:56.919Z,1.13
2019-03-05T17:28:02.953Z,0.96
2019-03-05T17:33:08.974Z,1.84
2019-03-05T17:38:15.050Z,0.92
2019-03-05T17:43:21.039Z,0.72
2019-03-05T17:48:27.064Z,1.29
2019-03-05T17:53:33.084Z,0.91
2019-03-05T17:58:39.141Z,1.04
2019-03-05T18:03:45.841Z,1.01
2019-03-05T18:08:52.129Z,1.16
2019-03-05T18:13:58.525Z,1.27
2019-03-05T18:19:04.689Z,1.93
2019-03-05T18:24:11.085Z,1.31
2019-03-05T18:29:17.228Z,2.11
2019-03-05T18:34:23.550Z,2.07
2019-03-05T18:39:29.752Z,3.33
2019-03-05T18:44:35.770Z,3.42
2019-03-05T18:49:41.998Z,4.82
2019-03-05T18:54:47.996Z,5.13
2019-03-05T18:59:54.125Z,2.36
2019-03-05T19:05:00.302Z,2.25
2019-03-05T19:10:06.133Z,1.55
2019-03-05T19:15:12.168Z,1.67
2019-03-05T19:20:18.354Z,1.46
2019-03-05T19:25:24.400Z,1.39
2019-03-05T19:30:30.601Z,1.56
2019-03-05T19:35:36.544Z,1.29
2019-03-05T19:40:42.919Z,1.83
2019-03-05T19:45:48.961Z,1.59
2019-03-05T19:50:55.200Z,1.01
2019-03-05T19:56:01.367Z,2.25
2019-03-05T20:01:07.411Z,1.39
2019-03-05T20:06:13.750Z,1.53
2019-03-05T20:11:19.925Z,1.26
2019-03-05T20:16:26.162Z,1.51
2019-03-05T20:21:32.175Z,2.31
2019-03-05T20:26:38.224Z,1.45
2019-03-05T20:31:44.280Z,1.57
2019-03-05T20:36:50.765Z,2.56
2019-03-05T20:41:56.765Z,2.66
2019-03-05T20:47:02.947Z,1.56
2019-03-05T20:52:08.932Z,1.72
2019-03-05T20:57:15.049Z,1.54
2019-03-05T21:02:21.177Z,1.56
2019-03-05T21:07:27.209Z,1.51
2019-03-05T21:12:33.808Z,1.55
2019-03-05T21:17:39.868Z,2.74
2019-03-05T21:22:45.914Z,2.91
2019-03-05T21:27:51.911Z,1.44
2019-03-05T21:32:59.812Z,1.98
2019-03-05T21:38:05.847Z,1.88
2019-03-05T21:43:11.882Z,2.04
2019-03-05T21:48:18.004Z,2.64
2019-03-05T21:53:24.036Z,1.75
2019-03-05T21:58:30.067Z,3.52
2019-03-05T22:03:36.115Z,1.74
2019-03-05T22:08:42.180Z,1.46
2019-03-05T22:13:48.249Z,1.18
2019-03-05T22:18:54.298Z,1.46
2019-03-05T22:24:00.427Z,2.42
2019-03-05T22:29:06.476Z,1.75
2019-03-05T22:34:12.570Z,1.59
2019-03-05T22:39:18.657Z,1.68
2019-03-05T22:44:24.640Z,1.58
2019-03-05T22:49:30.710Z,1.63
2019-03-05T22:54:36.691Z,1.38
2019-03-05T22:59:42.751Z,1.23
2019-03-05T23:04:48.903Z,1.44
2019-03-05T23:09:54.916Z,1.23
2019-03-05T23:15:01.114Z,1.29
2019-03-05T23:20:07.226Z,2.37
2019-03-05T23:25:13.233Z,1.41
2019-03-05T23:30:19.224Z,1.35
2019-03-05T23:35:25.216Z,2.29
2019-03-05T23:40:31.214Z,2.64
2019-03-05T23:45:37.246Z,1.70
2019-03-05T23:50:43.268Z,2.88
2019-03-05T23:55:49.265Z,2.32
